sensor_id;sensor_type;location;lat;lon;timestamp;P1;durP1;ratioP1;P2;durP2;ratioP2
15645;SDS011;7922;43.622;1.476;2022-11-15T00:00:05;8.80;;;7.90;;
15645;SDS011;7922;43.622;1.476;2022-11-15T00:02:31;8.50;;;7.63;;
15645;SDS011;7922;43.622;1.476;2022-11-15T00:04:56;8.70;;;7.83;;
15645;SDS011;7922;43.622;1.476;2022-11-15T00:07:22;8.07;;;7.37;;
15645;SDS011;7922;43.622;1.476;2022-11-15T00:09:47;8.70;;;7.90;;
15645;SDS011;7922;43.622;1.476;2022-11-15T00:12:13;8.30;;;7.50;;
15645;SDS011;7922;43.622;1.476;2022-11-15T00:14:38;9.33;;;7.80;;
15645;SDS011;7922;43.622;1.476;2022-11-15T00:17:03;8.63;;;6.80;;
15645;SDS011;7922;43.622;1.476;2022-11-15T00:19:29;8.13;;;7.10;;
15645;SDS011;7922;43.622;1.476;2022-11-15T00:21:54;7.60;;;6.83;;
15645;SDS011;7922;43.622;1.476;2022-11-15T00:24:20;7.63;;;6.80;;
15645;SDS011;7922;43.622;1.476;2022-11-15T00:26:45;6.83;;;6.10;;
15645;SDS011;7922;43.622;1.476;2022-11-15T00:29:10;6.13;;;5.57;;
15645;SDS011;7922;43.622;1.476;2022-11-15T00:31:36;6.30;;;5.70;;
15645;SDS011;7922;43.622;1.476;2022-11-15T00:34:01;6.37;;;5.77;;
15645;SDS011;7922;43.622;1.476;2022-11-15T00:36:27;6.43;;;5.83;;
15645;SDS011;7922;43.622;1.476;2022-11-15T00:38:52;6.67;;;5.83;;
15645;SDS011;7922;43.622;1.476;2022-11-15T00:41:17;6.17;;;5.57;;
15645;SDS011;7922;43.622;1.476;2022-11-15T00:43:43;6.17;;;5.57;;
15645;SDS011;7922;43.622;1.476;2022-11-15T00:46:09;5.53;;;5.03;;
15645;SDS011;7922;43.622;1.476;2022-11-15T00:48:34;6.00;;;5.40;;
15645;SDS011;7922;43.622;1.476;2022-11-15T00:51:00;5.93;;;5.27;;
15645;SDS011;7922;43.622;1.476;2022-11-15T00:53:26;5.40;;;4.90;;
15645;SDS011;7922;43.622;1.476;2022-11-15T00:55:52;7.77;;;5.60;;
15645;SDS011;7922;43.622;1.476;2022-11-15T00:58:17;6.80;;;5.37;;
15645;SDS011;7922;43.622;1.476;2022-11-15T01:00:43;5.37;;;4.97;;
15645;SDS011;7922;43.622;1.476;2022-11-15T01:03:08;5.17;;;4.70;;
15645;SDS011;7922;43.622;1.476;2022-11-15T01:05:36;4.77;;;4.37;;
15645;SDS011;7922;43.622;1.476;2022-11-15T01:08:02;6.13;;;5.53;;
15645;SDS011;7922;43.622;1.476;2022-11-15T01:10:28;5.40;;;4.90;;
15645;SDS011;7922;43.622;1.476;2022-11-15T01:12:53;5.07;;;4.57;;
15645;SDS011;7922;43.622;1.476;2022-11-15T01:15:18;5.00;;;4.60;;
15645;SDS011;7922;43.622;1.476;2022-11-15T01:17:44;6.33;;;4.93;;
15645;SDS011;7922;43.622;1.476;2022-11-15T01:20:09;5.43;;;4.57;;
15645;SDS011;7922;43.622;1.476;2022-11-15T01:22:35;5.50;;;4.30;;
15645;SDS011;7922;43.622;1.476;2022-11-15T01:25:00;5.23;;;4.70;;
15645;SDS011;7922;43.622;1.476;2022-11-15T01:27:25;6.03;;;4.77;;
15645;SDS011;7922;43.622;1.476;2022-11-15T01:29:51;6.87;;;5.60;;
15645;SDS011;7922;43.622;1.476;2022-11-15T01:32:16;5.03;;;4.53;;
15645;SDS011;7922;43.622;1.476;2022-11-15T01:34:42;5.53;;;5.03;;
15645;SDS011;7922;43.622;1.476;2022-11-15T01:37:08;5.67;;;5.17;;
15645;SDS011;7922;43.622;1.476;2022-11-15T01:39:33;4.67;;;4.27;;
15645;SDS011;7922;43.622;1.476;2022-11-15T01:41:58;5.50;;;5.00;;
15645;SDS011;7922;43.622;1.476;2022-11-15T01:46:59;5.23;;;4.67;;
15645;SDS011;7922;43.622;1.476;2022-11-15T01:49:27;6.07;;;5.00;;
15645;SDS011;7922;43.622;1.476;2022-11-15T01:51:54;6.17;;;5.23;;
15645;SDS011;7922;43.622;1.476;2022-11-15T01:54:20;6.33;;;5.67;;
15645;SDS011;7922;43.622;1.476;2022-11-15T01:56:53;7.23;;;6.23;;
15645;SDS011;7922;43.622;1.476;2022-11-15T01:59:21;6.17;;;5.37;;
15645;SDS011;7922;43.622;1.476;2022-11-15T02:01:47;6.80;;;5.40;;
15645;SDS011;7922;43.622;1.476;2022-11-15T02:06:42;8.90;;;5.83;;
15645;SDS011;7922;43.622;1.476;2022-11-15T02:09:07;5.60;;;5.10;;
15645;SDS011;7922;43.622;1.476;2022-11-15T02:11:33;6.07;;;5.47;;
15645;SDS011;7922;43.622;1.476;2022-11-15T02:13:58;7.27;;;6.57;;
15645;SDS011;7922;43.622;1.476;2022-11-15T02:16:31;6.73;;;5.57;;
15645;SDS011;7922;43.622;1.476;2022-11-15T02:19:02;6.17;;;5.57;;
15645;SDS011;7922;43.622;1.476;2022-11-15T02:32:31;6.83;;;5.03;;
15645;SDS011;7922;43.622;1.476;2022-11-15T02:38:00;7.53;;;5.80;;
15645;SDS011;7922;43.622;1.476;2022-11-15T02:40:52;6.70;;;5.67;;
15645;SDS011;7922;43.622;1.476;2022-11-15T02:44:02;8.80;;;5.97;;
15645;SDS011;7922;43.622;1.476;2022-11-15T02:46:23;6.83;;;5.97;;
15645;SDS011;7922;43.622;1.476;2022-11-15T02:49:25;7.17;;;6.20;;
15645;SDS011;7922;43.622;1.476;2022-11-15T02:51:52;7.07;;;6.40;;
15645;SDS011;7922;43.622;1.476;2022-11-15T02:54:21;9.07;;;6.77;;
15645;SDS011;7922;43.622;1.476;2022-11-15T02:56:48;7.83;;;6.50;;
15645;SDS011;7922;43.622;1.476;2022-11-15T02:59:20;7.77;;;6.07;;
15645;SDS011;7922;43.622;1.476;2022-11-15T03:01:56;6.93;;;5.87;;
15645;SDS011;7922;43.622;1.476;2022-11-15T03:04:58;6.17;;;5.57;;
15645;SDS011;7922;43.622;1.476;2022-11-15T03:10:11;9.00;;;6.60;;
15645;SDS011;7922;43.622;1.476;2022-11-15T03:15:12;7.47;;;6.70;;
15645;SDS011;7922;43.622;1.476;2022-11-15T03:17:43;8.97;;;6.67;;
15645;SDS011;7922;43.622;1.476;2022-11-15T03:20:16;8.50;;;6.13;;
15645;SDS011;7922;43.622;1.476;2022-11-15T03:22:43;7.20;;;6.33;;
15645;SDS011;7922;43.622;1.476;2022-11-15T03:25:10;8.17;;;6.60;;
15645;SDS011;7922;43.622;1.476;2022-11-15T03:27:42;8.57;;;7.00;;
15645;SDS011;7922;43.622;1.476;2022-11-15T03:30:11;8.87;;;6.83;;
15645;SDS011;7922;43.622;1.476;2022-11-15T03:32:40;7.73;;;6.40;;
15645;SDS011;7922;43.622;1.476;2022-11-15T03:35:09;7.57;;;6.13;;
15645;SDS011;7922;43.622;1.476;2022-11-15T03:37:45;10.37;;;6.40;;
15645;SDS011;7922;43.622;1.476;2022-11-15T03:40:12;11.73;;;6.90;;
15645;SDS011;7922;43.622;1.476;2022-11-15T03:42:40;6.90;;;6.17;;
15645;SDS011;7922;43.622;1.476;2022-11-15T03:45:13;9.77;;;6.47;;
15645;SDS011;7922;43.622;1.476;2022-11-15T03:47:43;9.20;;;6.37;;
15645;SDS011;7922;43.622;1.476;2022-11-15T03:50:15;6.73;;;5.67;;
15645;SDS011;7922;43.622;1.476;2022-11-15T03:52:42;9.87;;;5.73;;
15645;SDS011;7922;43.622;1.476;2022-11-15T03:55:11;7.43;;;5.90;;
15645;SDS011;7922;43.622;1.476;2022-11-15T03:57:38;11.17;;;6.17;;
15645;SDS011;7922;43.622;1.476;2022-11-15T04:00:04;9.83;;;6.77;;
15645;SDS011;7922;43.622;1.476;2022-11-15T04:02:30;7.57;;;5.90;;
15645;SDS011;7922;43.622;1.476;2022-11-15T04:04:55;8.63;;;6.17;;
15645;SDS011;7922;43.622;1.476;2022-11-15T04:07:21;8.93;;;6.00;;
15645;SDS011;7922;43.622;1.476;2022-11-15T04:09:46;8.87;;;6.17;;
15645;SDS011;7922;43.622;1.476;2022-11-15T04:12:27;7.33;;;6.00;;
15645;SDS011;7922;43.622;1.476;2022-11-15T04:14:56;8.20;;;5.97;;
15645;SDS011;7922;43.622;1.476;2022-11-15T04:17:35;8.63;;;5.80;;
15645;SDS011;7922;43.622;1.476;2022-11-15T04:20:03;11.57;;;6.13;;
15645;SDS011;7922;43.622;1.476;2022-11-15T04:22:52;8.17;;;6.33;;
15645;SDS011;7922;43.622;1.476;2022-11-15T04:25:37;8.70;;;6.00;;
15645;SDS011;7922;43.622;1.476;2022-11-15T04:28:02;10.33;;;6.17;;
15645;SDS011;7922;43.622;1.476;2022-11-15T04:30:28;7.60;;;6.07;;
15645;SDS011;7922;43.622;1.476;2022-11-15T04:32:53;8.10;;;6.07;;
15645;SDS011;7922;43.622;1.476;2022-11-15T04:35:18;7.60;;;6.00;;
15645;SDS011;7922;43.622;1.476;2022-11-15T04:37:44;10.10;;;6.50;;
15645;SDS011;7922;43.622;1.476;2022-11-15T04:40:09;7.67;;;6.80;;
15645;SDS011;7922;43.622;1.476;2022-11-15T04:42:35;7.77;;;6.93;;
15645;SDS011;7922;43.622;1.476;2022-11-15T04:45:00;11.80;;;7.40;;
15645;SDS011;7922;43.622;1.476;2022-11-15T04:47:25;10.27;;;7.07;;
15645;SDS011;7922;43.622;1.476;2022-11-15T04:49:52;11.07;;;7.43;;
15645;SDS011;7922;43.622;1.476;2022-11-15T04:52:18;10.47;;;6.80;;
15645;SDS011;7922;43.622;1.476;2022-11-15T04:54:43;10.67;;;7.20;;
15645;SDS011;7922;43.622;1.476;2022-11-15T04:57:09;9.00;;;7.03;;
15645;SDS011;7922;43.622;1.476;2022-11-15T04:59:35;9.40;;;7.30;;
15645;SDS011;7922;43.622;1.476;2022-11-15T05:02:00;8.67;;;7.57;;
15645;SDS011;7922;43.622;1.476;2022-11-15T05:04:25;10.40;;;7.30;;
15645;SDS011;7922;43.622;1.476;2022-11-15T05:06:51;8.13;;;7.33;;
15645;SDS011;7922;43.622;1.476;2022-11-15T05:09:21;8.30;;;7.40;;
15645;SDS011;7922;43.622;1.476;2022-11-15T05:11:46;12.63;;;7.67;;
15645;SDS011;7922;43.622;1.476;2022-11-15T05:14:12;11.57;;;7.60;;
15645;SDS011;7922;43.622;1.476;2022-11-15T05:16:38;8.80;;;7.60;;
15645;SDS011;7922;43.622;1.476;2022-11-15T05:19:04;12.93;;;7.67;;
15645;SDS011;7922;43.622;1.476;2022-11-15T05:21:29;10.27;;;8.17;;
15645;SDS011;7922;43.622;1.476;2022-11-15T05:23:55;8.97;;;8.03;;
15645;SDS011;7922;43.622;1.476;2022-11-15T05:26:20;11.23;;;8.10;;
15645;SDS011;7922;43.622;1.476;2022-11-15T05:28:45;12.83;;;8.00;;
15645;SDS011;7922;43.622;1.476;2022-11-15T05:31:12;13.53;;;8.20;;
15645;SDS011;7922;43.622;1.476;2022-11-15T05:33:39;11.80;;;8.17;;
15645;SDS011;7922;43.622;1.476;2022-11-15T05:38:54;9.67;;;7.63;;
15645;SDS011;7922;43.622;1.476;2022-11-15T05:41:21;11.87;;;8.30;;
15645;SDS011;7922;43.622;1.476;2022-11-15T05:43:50;12.87;;;8.10;;
15645;SDS011;7922;43.622;1.476;2022-11-15T05:46:16;12.97;;;8.80;;
15645;SDS011;7922;43.622;1.476;2022-11-15T05:48:43;13.00;;;8.73;;
15645;SDS011;7922;43.622;1.476;2022-11-15T05:51:11;12.97;;;8.73;;
15645;SDS011;7922;43.622;1.476;2022-11-15T05:53:38;10.37;;;8.97;;
15645;SDS011;7922;43.622;1.476;2022-11-15T05:56:04;14.20;;;8.43;;
15645;SDS011;7922;43.622;1.476;2022-11-15T05:58:31;13.60;;;8.77;;
15645;SDS011;7922;43.622;1.476;2022-11-15T06:01:00;12.70;;;8.57;;
15645;SDS011;7922;43.622;1.476;2022-11-15T06:03:25;15.53;;;9.10;;
15645;SDS011;7922;43.622;1.476;2022-11-15T06:05:50;10.57;;;9.23;;
15645;SDS011;7922;43.622;1.476;2022-11-15T06:08:16;15.20;;;9.13;;
15645;SDS011;7922;43.622;1.476;2022-11-15T06:10:41;15.30;;;9.63;;
15645;SDS011;7922;43.622;1.476;2022-11-15T06:13:06;18.20;;;10.17;;
15645;SDS011;7922;43.622;1.476;2022-11-15T06:15:32;15.40;;;9.60;;
15645;SDS011;7922;43.622;1.476;2022-11-15T06:17:59;12.07;;;9.50;;
15645;SDS011;7922;43.622;1.476;2022-11-15T06:20:25;13.10;;;10.07;;
15645;SDS011;7922;43.622;1.476;2022-11-15T06:23:02;15.67;;;9.90;;
15645;SDS011;7922;43.622;1.476;2022-11-15T06:25:29;16.83;;;9.40;;
15645;SDS011;7922;43.622;1.476;2022-11-15T06:27:55;11.47;;;9.67;;
15645;SDS011;7922;43.622;1.476;2022-11-15T06:30:22;14.03;;;9.47;;
15645;SDS011;7922;43.622;1.476;2022-11-15T06:32:49;15.30;;;10.07;;
15645;SDS011;7922;43.622;1.476;2022-11-15T06:35:14;13.80;;;9.83;;
15645;SDS011;7922;43.622;1.476;2022-11-15T06:37:40;15.03;;;9.80;;
15645;SDS011;7922;43.622;1.476;2022-11-15T06:40:06;15.27;;;10.13;;
15645;SDS011;7922;43.622;1.476;2022-11-15T06:42:33;13.20;;;9.33;;
15645;SDS011;7922;43.622;1.476;2022-11-15T06:44:58;13.13;;;9.23;;
15645;SDS011;7922;43.622;1.476;2022-11-15T06:47:24;13.30;;;9.93;;
15645;SDS011;7922;43.622;1.476;2022-11-15T06:49:49;15.73;;;9.93;;
15645;SDS011;7922;43.622;1.476;2022-11-15T06:52:14;12.43;;;10.00;;
15645;SDS011;7922;43.622;1.476;2022-11-15T06:54:40;11.90;;;9.63;;
15645;SDS011;7922;43.622;1.476;2022-11-15T06:57:05;16.70;;;9.47;;
15645;SDS011;7922;43.622;1.476;2022-11-15T06:59:31;17.27;;;10.17;;
15645;SDS011;7922;43.622;1.476;2022-11-15T07:01:56;11.60;;;9.13;;
15645;SDS011;7922;43.622;1.476;2022-11-15T07:04:21;12.43;;;9.27;;
15645;SDS011;7922;43.622;1.476;2022-11-15T07:06:47;13.20;;;9.37;;
15645;SDS011;7922;43.622;1.476;2022-11-15T07:09:13;11.37;;;9.20;;
15645;SDS011;7922;43.622;1.476;2022-11-15T07:11:38;13.73;;;9.37;;
15645;SDS011;7922;43.622;1.476;2022-11-15T07:14:04;13.63;;;10.07;;
15645;SDS011;7922;43.622;1.476;2022-11-15T07:16:29;12.17;;;9.43;;
15645;SDS011;7922;43.622;1.476;2022-11-15T07:18:55;14.63;;;9.03;;
15645;SDS011;7922;43.622;1.476;2022-11-15T07:21:20;13.97;;;9.50;;
15645;SDS011;7922;43.622;1.476;2022-11-15T07:23:46;12.00;;;8.80;;
15645;SDS011;7922;43.622;1.476;2022-11-15T07:26:11;14.73;;;9.03;;
15645;SDS011;7922;43.622;1.476;2022-11-15T07:28:36;12.40;;;8.33;;
15645;SDS011;7922;43.622;1.476;2022-11-15T07:31:06;13.03;;;8.17;;
15645;SDS011;7922;43.622;1.476;2022-11-15T07:33:32;14.67;;;8.73;;
15645;SDS011;7922;43.622;1.476;2022-11-15T07:36:01;13.77;;;8.33;;
15645;SDS011;7922;43.622;1.476;2022-11-15T07:38:29;12.90;;;8.60;;
15645;SDS011;7922;43.622;1.476;2022-11-15T07:40:58;10.60;;;7.50;;
15645;SDS011;7922;43.622;1.476;2022-11-15T07:43:25;9.53;;;7.80;;
15645;SDS011;7922;43.622;1.476;2022-11-15T07:45:52;14.83;;;8.20;;
15645;SDS011;7922;43.622;1.476;2022-11-15T07:48:18;14.87;;;8.03;;
15645;SDS011;7922;43.622;1.476;2022-11-15T07:50:43;11.30;;;7.43;;
15645;SDS011;7922;43.622;1.476;2022-11-15T07:53:09;8.53;;;7.63;;
15645;SDS011;7922;43.622;1.476;2022-11-15T07:55:35;10.87;;;7.27;;
15645;SDS011;7922;43.622;1.476;2022-11-15T07:58:02;9.63;;;7.23;;
15645;SDS011;7922;43.622;1.476;2022-11-15T08:00:31;9.87;;;7.20;;
15645;SDS011;7922;43.622;1.476;2022-11-15T08:05:28;10.63;;;7.03;;
15645;SDS011;7922;43.622;1.476;2022-11-15T08:07:57;10.20;;;7.60;;
15645;SDS011;7922;43.622;1.476;2022-11-15T08:10:23;11.50;;;7.40;;
15645;SDS011;7922;43.622;1.476;2022-11-15T08:12:56;13.40;;;7.37;;
15645;SDS011;7922;43.622;1.476;2022-11-15T08:15:22;9.73;;;7.40;;
15645;SDS011;7922;43.622;1.476;2022-11-15T08:17:52;10.83;;;7.57;;
15645;SDS011;7922;43.622;1.476;2022-11-15T08:20:18;10.60;;;7.70;;
15645;SDS011;7922;43.622;1.476;2022-11-15T08:22:44;11.50;;;7.67;;
15645;SDS011;7922;43.622;1.476;2022-11-15T08:25:09;11.63;;;7.40;;
15645;SDS011;7922;43.622;1.476;2022-11-15T08:27:35;12.07;;;7.40;;
15645;SDS011;7922;43.622;1.476;2022-11-15T08:30:00;11.30;;;7.60;;
15645;SDS011;7922;43.622;1.476;2022-11-15T08:32:26;12.00;;;7.83;;
15645;SDS011;7922;43.622;1.476;2022-11-15T08:34:52;14.20;;;7.87;;
15645;SDS011;7922;43.622;1.476;2022-11-15T08:37:17;13.93;;;7.13;;
15645;SDS011;7922;43.622;1.476;2022-11-15T08:39:42;11.67;;;7.50;;
15645;SDS011;7922;43.622;1.476;2022-11-15T08:42:08;10.00;;;7.33;;
15645;SDS011;7922;43.622;1.476;2022-11-15T08:44:33;11.10;;;7.37;;
15645;SDS011;7922;43.622;1.476;2022-11-15T08:46:58;11.10;;;6.80;;
15645;SDS011;7922;43.622;1.476;2022-11-15T08:49:24;11.23;;;6.97;;
15645;SDS011;7922;43.622;1.476;2022-11-15T08:51:49;11.00;;;7.47;;
15645;SDS011;7922;43.622;1.476;2022-11-15T08:54:15;12.57;;;7.43;;
15645;SDS011;7922;43.622;1.476;2022-11-15T08:56:40;13.33;;;7.33;;
15645;SDS011;7922;43.622;1.476;2022-11-15T08:59:05;13.57;;;8.17;;
15645;SDS011;7922;43.622;1.476;2022-11-15T09:01:31;8.50;;;7.43;;
15645;SDS011;7922;43.622;1.476;2022-11-15T09:03:57;11.00;;;6.77;;
15645;SDS011;7922;43.622;1.476;2022-11-15T09:06:23;14.63;;;7.77;;
15645;SDS011;7922;43.622;1.476;2022-11-15T09:08:48;10.70;;;7.73;;
15645;SDS011;7922;43.622;1.476;2022-11-15T09:11:13;8.77;;;7.10;;
15645;SDS011;7922;43.622;1.476;2022-11-15T09:13:41;10.23;;;6.80;;
15645;SDS011;7922;43.622;1.476;2022-11-15T09:16:07;7.40;;;6.63;;
15645;SDS011;7922;43.622;1.476;2022-11-15T09:18:32;13.90;;;7.77;;
15645;SDS011;7922;43.622;1.476;2022-11-15T09:20:59;10.30;;;6.93;;
15645;SDS011;7922;43.622;1.476;2022-11-15T09:23:25;9.63;;;7.13;;
15645;SDS011;7922;43.622;1.476;2022-11-15T09:25:51;9.47;;;7.27;;
15645;SDS011;7922;43.622;1.476;2022-11-15T09:28:17;10.00;;;7.50;;
15645;SDS011;7922;43.622;1.476;2022-11-15T09:30:43;11.47;;;7.93;;
15645;SDS011;7922;43.622;1.476;2022-11-15T09:33:08;11.07;;;7.53;;
15645;SDS011;7922;43.622;1.476;2022-11-15T09:35:35;8.63;;;7.73;;
15645;SDS011;7922;43.622;1.476;2022-11-15T09:38:01;12.43;;;8.37;;
15645;SDS011;7922;43.622;1.476;2022-11-15T09:40:26;13.20;;;7.73;;
15645;SDS011;7922;43.622;1.476;2022-11-15T09:47:55;10.20;;;7.03;;
15645;SDS011;7922;43.622;1.476;2022-11-15T09:53:09;11.50;;;6.93;;
15645;SDS011;7922;43.622;1.476;2022-11-15T09:55:40;11.53;;;7.33;;
15645;SDS011;7922;43.622;1.476;2022-11-15T10:00:47;8.53;;;6.33;;
15645;SDS011;7922;43.622;1.476;2022-11-15T10:03:19;8.77;;;6.57;;
15645;SDS011;7922;43.622;1.476;2022-11-15T10:05:55;8.43;;;6.37;;
15645;SDS011;7922;43.622;1.476;2022-11-15T10:11:10;7.67;;;6.77;;
15645;SDS011;7922;43.622;1.476;2022-11-15T10:13:39;8.97;;;7.03;;
15645;SDS011;7922;43.622;1.476;2022-11-15T10:16:26;7.43;;;6.73;;
15645;SDS011;7922;43.622;1.476;2022-11-15T10:19:30;7.27;;;5.97;;
15645;SDS011;7922;43.622;1.476;2022-11-15T10:24:46;6.93;;;5.87;;
15645;SDS011;7922;43.622;1.476;2022-11-15T10:27:14;8.03;;;5.97;;
15645;SDS011;7922;43.622;1.476;2022-11-15T10:29:47;8.07;;;5.83;;
15645;SDS011;7922;43.622;1.476;2022-11-15T10:32:14;8.60;;;6.13;;
15645;SDS011;7922;43.622;1.476;2022-11-15T10:34:42;7.10;;;5.67;;
15645;SDS011;7922;43.622;1.476;2022-11-15T10:37:08;10.63;;;5.70;;
15645;SDS011;7922;43.622;1.476;2022-11-15T10:39:33;6.40;;;5.80;;
15645;SDS011;7922;43.622;1.476;2022-11-15T10:42:14;8.07;;;5.80;;
15645;SDS011;7922;43.622;1.476;2022-11-15T10:44:57;6.47;;;5.80;;
15645;SDS011;7922;43.622;1.476;2022-11-15T10:52:24;6.57;;;5.93;;
15645;SDS011;7922;43.622;1.476;2022-11-15T10:54:51;8.90;;;6.10;;
15645;SDS011;7922;43.622;1.476;2022-11-15T10:57:26;6.90;;;5.63;;
15645;SDS011;7922;43.622;1.476;2022-11-15T10:59:55;6.43;;;5.83;;
15645;SDS011;7922;43.622;1.476;2022-11-15T11:02:33;8.03;;;5.90;;
15645;SDS011;7922;43.622;1.476;2022-11-15T11:05:02;9.27;;;5.70;;
15645;SDS011;7922;43.622;1.476;2022-11-15T11:07:31;7.83;;;6.33;;
15645;SDS011;7922;43.622;1.476;2022-11-15T11:09:58;9.13;;;6.63;;
15645;SDS011;7922;43.622;1.476;2022-11-15T11:12:44;10.60;;;6.70;;
15645;SDS011;7922;43.622;1.476;2022-11-15T11:15:12;8.67;;;6.13;;
15645;SDS011;7922;43.622;1.476;2022-11-15T11:42:42;10.30;;;5.90;;
15645;SDS011;7922;43.622;1.476;2022-11-15T11:50:32;7.70;;;5.73;;
15645;SDS011;7922;43.622;1.476;2022-11-15T11:53:00;7.07;;;5.67;;
15645;SDS011;7922;43.622;1.476;2022-11-15T11:55:37;9.00;;;5.93;;
15645;SDS011;7922;43.622;1.476;2022-11-15T11:58:16;7.23;;;5.50;;
15645;SDS011;7922;43.622;1.476;2022-11-15T12:03:48;8.83;;;5.60;;
15645;SDS011;7922;43.622;1.476;2022-11-15T12:06:21;11.90;;;5.63;;
15645;SDS011;7922;43.622;1.476;2022-11-15T12:09:01;8.87;;;5.77;;
15645;SDS011;7922;43.622;1.476;2022-11-15T12:11:47;8.93;;;5.63;;
15645;SDS011;7922;43.622;1.476;2022-11-15T12:14:22;7.33;;;5.60;;
15645;SDS011;7922;43.622;1.476;2022-11-15T12:16:51;6.17;;;5.57;;
15645;SDS011;7922;43.622;1.476;2022-11-15T12:19:17;8.73;;;5.80;;
15645;SDS011;7922;43.622;1.476;2022-11-15T12:21:44;7.07;;;5.60;;
15645;SDS011;7922;43.622;1.476;2022-11-15T12:24:19;7.90;;;6.17;;
15645;SDS011;7922;43.622;1.476;2022-11-15T12:26:52;7.20;;;5.53;;
15645;SDS011;7922;43.622;1.476;2022-11-15T12:29:33;9.47;;;5.67;;
15645;SDS011;7922;43.622;1.476;2022-11-15T12:32:02;11.90;;;6.40;;
15645;SDS011;7922;43.622;1.476;2022-11-15T12:34:29;8.13;;;6.00;;
15645;SDS011;7922;43.622;1.476;2022-11-15T12:42:35;7.87;;;6.07;;
15645;SDS011;7922;43.622;1.476;2022-11-15T12:45:01;11.23;;;6.47;;
15645;SDS011;7922;43.622;1.476;2022-11-15T12:47:27;7.93;;;6.37;;
15645;SDS011;7922;43.622;1.476;2022-11-15T12:49:52;7.90;;;5.10;;
15645;SDS011;7922;43.622;1.476;2022-11-15T12:52:18;10.80;;;6.17;;
15645;SDS011;7922;43.622;1.476;2022-11-15T13:02:22;8.77;;;6.23;;
15645;SDS011;7922;43.622;1.476;2022-11-15T13:05:20;9.43;;;6.07;;
15645;SDS011;7922;43.622;1.476;2022-11-15T13:17:38;9.80;;;6.30;;
15645;SDS011;7922;43.622;1.476;2022-11-15T13:30:52;10.23;;;5.87;;
15645;SDS011;7922;43.622;1.476;2022-11-15T13:33:25;9.50;;;6.17;;
15645;SDS011;7922;43.622;1.476;2022-11-15T13:35:57;13.10;;;6.30;;
15645;SDS011;7922;43.622;1.476;2022-11-15T13:40:50;7.43;;;5.87;;
15645;SDS011;7922;43.622;1.476;2022-11-15T13:46:04;7.13;;;5.83;;
15645;SDS011;7922;43.622;1.476;2022-11-15T13:48:37;8.17;;;5.97;;
15645;SDS011;7922;43.622;1.476;2022-11-15T13:51:05;8.97;;;5.77;;
15645;SDS011;7922;43.622;1.476;2022-11-15T13:54:00;9.87;;;6.47;;
15645;SDS011;7922;43.622;1.476;2022-11-15T13:56:44;8.93;;;5.70;;
15645;SDS011;7922;43.622;1.476;2022-11-15T13:59:25;8.77;;;6.20;;
15645;SDS011;7922;43.622;1.476;2022-11-15T14:01:53;8.17;;;5.73;;
15645;SDS011;7922;43.622;1.476;2022-11-15T14:04:20;9.27;;;6.27;;
15645;SDS011;7922;43.622;1.476;2022-11-15T14:06:50;9.03;;;5.77;;
15645;SDS011;7922;43.622;1.476;2022-11-15T14:09:37;8.27;;;6.63;;
15645;SDS011;7922;43.622;1.476;2022-11-15T14:12:25;10.70;;;6.80;;
15645;SDS011;7922;43.622;1.476;2022-11-15T14:14:52;9.70;;;6.27;;
15645;SDS011;7922;43.622;1.476;2022-11-15T14:19:53;9.03;;;6.30;;
15645;SDS011;7922;43.622;1.476;2022-11-15T14:25:13;9.40;;;6.37;;
15645;SDS011;7922;43.622;1.476;2022-11-15T14:27:44;10.00;;;5.57;;
15645;SDS011;7922;43.622;1.476;2022-11-15T14:30:30;9.17;;;6.27;;
15645;SDS011;7922;43.622;1.476;2022-11-15T14:32:55;8.63;;;5.77;;
15645;SDS011;7922;43.622;1.476;2022-11-15T14:35:21;12.20;;;6.23;;
15645;SDS011;7922;43.622;1.476;2022-11-15T14:37:48;11.03;;;5.70;;
15645;SDS011;7922;43.622;1.476;2022-11-15T14:40:15;13.10;;;6.53;;
15645;SDS011;7922;43.622;1.476;2022-11-15T14:42:47;16.83;;;6.83;;
15645;SDS011;7922;43.622;1.476;2022-11-15T14:45:14;11.37;;;6.50;;
15645;SDS011;7922;43.622;1.476;2022-11-15T14:47:41;8.07;;;6.00;;
15645;SDS011;7922;43.622;1.476;2022-11-15T14:50:10;11.00;;;7.43;;
15645;SDS011;7922;43.622;1.476;2022-11-15T14:52:39;12.57;;;7.87;;
15645;SDS011;7922;43.622;1.476;2022-11-15T14:57:57;11.90;;;7.53;;
15645;SDS011;7922;43.622;1.476;2022-11-15T15:00:28;9.43;;;7.07;;
15645;SDS011;7922;43.622;1.476;2022-11-15T15:02:54;10.10;;;7.13;;
15645;SDS011;7922;43.622;1.476;2022-11-15T15:05:29;11.17;;;6.97;;
15645;SDS011;7922;43.622;1.476;2022-11-15T15:07:57;12.47;;;6.80;;
15645;SDS011;7922;43.622;1.476;2022-11-15T15:10:22;12.67;;;7.43;;
15645;SDS011;7922;43.622;1.476;2022-11-15T15:12:49;8.90;;;6.67;;
15645;SDS011;7922;43.622;1.476;2022-11-15T15:15:16;9.83;;;7.13;;
15645;SDS011;7922;43.622;1.476;2022-11-15T15:17:45;11.73;;;7.23;;
15645;SDS011;7922;43.622;1.476;2022-11-15T15:20:11;11.00;;;7.20;;
15645;SDS011;7922;43.622;1.476;2022-11-15T15:22:37;7.77;;;6.97;;
15645;SDS011;7922;43.622;1.476;2022-11-15T15:25:02;9.27;;;6.90;;
15645;SDS011;7922;43.622;1.476;2022-11-15T15:27:32;9.07;;;7.73;;
15645;SDS011;7922;43.622;1.476;2022-11-15T15:29:58;8.47;;;6.93;;
15645;SDS011;7922;43.622;1.476;2022-11-15T15:32:23;11.77;;;7.40;;
15645;SDS011;7922;43.622;1.476;2022-11-15T15:34:48;8.03;;;7.00;;
15645;SDS011;7922;43.622;1.476;2022-11-15T15:39:48;10.67;;;6.00;;
15645;SDS011;7922;43.622;1.476;2022-11-15T15:42:14;9.97;;;6.97;;
15645;SDS011;7922;43.622;1.476;2022-11-15T15:44:39;7.80;;;7.10;;
15645;SDS011;7922;43.622;1.476;2022-11-15T15:47:12;10.63;;;7.57;;
15645;SDS011;7922;43.622;1.476;2022-11-15T15:49:38;7.77;;;6.50;;
15645;SDS011;7922;43.622;1.476;2022-11-15T15:52:04;9.20;;;7.00;;
15645;SDS011;7922;43.622;1.476;2022-11-15T15:54:30;10.23;;;7.07;;
15645;SDS011;7922;43.622;1.476;2022-11-15T15:56:55;9.53;;;7.37;;
15645;SDS011;7922;43.622;1.476;2022-11-15T15:59:20;8.97;;;6.90;;
15645;SDS011;7922;43.622;1.476;2022-11-15T16:01:46;8.23;;;6.70;;
15645;SDS011;7922;43.622;1.476;2022-11-15T16:04:11;10.53;;;6.60;;
15645;SDS011;7922;43.622;1.476;2022-11-15T16:06:37;8.30;;;6.67;;
15645;SDS011;7922;43.622;1.476;2022-11-15T16:09:05;13.93;;;7.30;;
15645;SDS011;7922;43.622;1.476;2022-11-15T16:11:30;9.17;;;7.47;;
15645;SDS011;7922;43.622;1.476;2022-11-15T16:13:56;7.73;;;6.60;;
15645;SDS011;7922;43.622;1.476;2022-11-15T16:16:21;10.60;;;7.43;;
15645;SDS011;7922;43.622;1.476;2022-11-15T16:18:47;9.43;;;6.90;;
15645;SDS011;7922;43.622;1.476;2022-11-15T16:21:13;8.23;;;6.73;;
15645;SDS011;7922;43.622;1.476;2022-11-15T16:23:38;8.27;;;6.80;;
15645;SDS011;7922;43.622;1.476;2022-11-15T16:26:10;7.53;;;6.77;;
15645;SDS011;7922;43.622;1.476;2022-11-15T16:28:43;10.47;;;6.97;;
15645;SDS011;7922;43.622;1.476;2022-11-15T16:31:09;14.33;;;6.50;;
15645;SDS011;7922;43.622;1.476;2022-11-15T16:33:36;11.57;;;6.53;;
15645;SDS011;7922;43.622;1.476;2022-11-15T16:36:02;11.40;;;7.10;;
15645;SDS011;7922;43.622;1.476;2022-11-15T16:38:29;11.70;;;7.47;;
15645;SDS011;7922;43.622;1.476;2022-11-15T16:40:54;9.43;;;7.20;;
15645;SDS011;7922;43.622;1.476;2022-11-15T16:43:20;8.43;;;7.10;;
15645;SDS011;7922;43.622;1.476;2022-11-15T16:45:46;9.13;;;7.17;;
15645;SDS011;7922;43.622;1.476;2022-11-15T16:48:24;10.77;;;7.40;;
15645;SDS011;7922;43.622;1.476;2022-11-15T16:50:55;10.57;;;7.70;;
15645;SDS011;7922;43.622;1.476;2022-11-15T16:53:21;14.73;;;9.30;;
15645;SDS011;7922;43.622;1.476;2022-11-15T16:55:47;11.20;;;9.10;;
15645;SDS011;7922;43.622;1.476;2022-11-15T16:58:13;11.93;;;8.10;;
15645;SDS011;7922;43.622;1.476;2022-11-15T17:00:39;12.67;;;8.33;;
15645;SDS011;7922;43.622;1.476;2022-11-15T17:03:04;9.57;;;7.70;;
15645;SDS011;7922;43.622;1.476;2022-11-15T17:05:30;11.93;;;8.20;;
15645;SDS011;7922;43.622;1.476;2022-11-15T17:07:55;12.77;;;10.07;;
15645;SDS011;7922;43.622;1.476;2022-11-15T17:10:21;11.40;;;10.00;;
15645;SDS011;7922;43.622;1.476;2022-11-15T17:12:48;14.67;;;11.93;;
15645;SDS011;7922;43.622;1.476;2022-11-15T17:15:14;14.73;;;11.50;;